Time;durP1;ratioP1;P1;durP2;ratioP2;P2;SDS_P1;SDS_P2;PMS_P1;PMS_P2;Temp;Humidity;BMP_temperature;BMP_pressure;BME280_temperature;BME280_humidity;BME280_pressure;Samples;Min_cycle;Max_cycle;Signal;HPM_P1;HPM_P2
2022/04/25 00:01:22;;;;;;;0.85;0.60;;;;;;;;;;5092634;28;20070;-75
2022/04/25 00:03:49;;;;;;;1.98;0.70;;;;;;;;;;5093609;28;20024;-76
2022/04/25 00:06:16;;;;;;;1.48;0.57;;;;;;;;;;5093424;28;20059;-74
2022/04/25 00:08:43;;;;;;;1.05;0.90;;;;;;;;;;5092537;28;20024;-75
2022/04/25 00:11:11;;;;;;;0.75;0.60;;;;;;;;;;5092284;28;20024;-75
2022/04/25 00:13:38;;;;;;;1.98;0.80;;;;;;;;;;5093698;28;20480;-75
2022/04/25 00:16:06;;;;;;;1.20;0.65;;;;;;;;;;5092247;28;20016;-74
2022/04/25 00:18:33;;;;;;;2.10;1.00;;;;;;;;;;5092298;28;20035;-77
2022/04/25 00:21:00;;;;;;;1.05;0.60;;;;;;;;;;5092256;28;20020;-75
2022/04/25 00:23:27;;;;;;;1.63;0.80;;;;;;;;;;5092257;28;20030;-74
2022/04/25 00:25:55;;;;;;;0.80;0.65;;;;;;;;;;5093439;28;20020;-75
2022/04/25 00:28:22;;;;;;;3.63;0.77;;;;;;;;;;5093512;28;20028;-75
2022/04/25 00:30:49;;;;;;;1.33;0.80;;;;;;;;;;5093305;28;20508;-74
2022/04/25 00:33:17;;;;;;;1.80;0.70;;;;;;;;;;5093050;28;20042;-75
2022/04/25 00:35:44;;;;;;;1.30;0.80;;;;;;;;;;5091871;28;20035;-74
2022/04/25 00:38:11;;;;;;;0.60;0.60;;;;;;;;;;5091947;28;20024;-74
2022/04/25 00:40:39;;;;;;;1.90;0.60;;;;;;;;;;5093297;28;20019;-73
2022/04/25 00:43:06;;;;;;;2.17;0.90;;;;;;;;;;5091749;28;20073;-74
2022/04/25 00:45:34;;;;;;;1.27;0.55;;;;;;;;;;5091764;28;20460;-74
2022/04/25 00:48:01;;;;;;;1.42;0.80;;;;;;;;;;5091539;28;20055;-74
2022/04/25 00:50:29;;;;;;;1.88;0.70;;;;;;;;;;5093092;28;20417;-75
2022/04/25 00:52:56;;;;;;;1.42;0.60;;;;;;;;;;5092655;28;20028;-74
2022/04/25 00:55:24;;;;;;;1.08;0.60;;;;;;;;;;5092760;28;20476;-74
2022/04/25 00:57:56;;;;;;;1.77;0.63;;;;;;;;;;5091251;28;20028;-74
2022/04/25 01:00:24;;;;;;;0.90;0.45;;;;;;;;;;5092782;28;20048;-73
2022/04/25 01:02:51;;;;;;;1.08;0.40;;;;;;;;;;5092547;28;20062;-72
2022/04/25 01:05:18;;;;;;;0.95;0.40;;;;;;;;;;5092580;28;20023;-73
2022/04/25 01:07:45;;;;;;;1.17;0.40;;;;;;;;;;5091143;28;20110;-74
2022/04/25 01:10:13;;;;;;;0.50;0.38;;;;;;;;;;5092628;28;20024;-74
2022/04/25 01:12:40;;;;;;;0.93;0.40;;;;;;;;;;5092515;28;20024;-74
2022/04/25 01:15:08;;;;;;;1.88;0.55;;;;;;;;;;5091199;28;20025;-74
2022/04/25 01:17:35;;;;;;;3.03;0.63;;;;;;;;;;5092485;28;20020;-74
2022/04/25 01:20:03;;;;;;;2.00;0.60;;;;;;;;;;5091653;28;20094;-73
2022/04/25 01:22:38;;;;;;;2.42;0.43;;;;;;;;;;5092314;28;20455;-73
2022/04/25 01:27:51;;;;;;;1.23;0.30;;;;;;;;;;5092403;28;20035;-75
2022/04/25 01:30:18;;;;;;;0.98;0.52;;;;;;;;;;5092359;28;20024;-74
2022/04/25 01:32:46;;;;;;;0.82;0.40;;;;;;;;;;5090593;28;20025;-74
2022/04/25 01:35:13;;;;;;;2.35;0.80;;;;;;;;;;5092196;28;20433;-73
2022/04/25 01:37:40;;;;;;;0.65;0.50;;;;;;;;;;5092274;28;20077;-74
2022/04/25 01:40:08;;;;;;;4.40;0.95;;;;;;;;;;5090954;28;20077;-74
2022/04/25 01:42:35;;;;;;;1.75;0.65;;;;;;;;;;5092183;28;20149;-74
2022/04/25 01:45:03;;;;;;;0.63;0.38;;;;;;;;;;5094251;28;20032;-72
2022/04/25 01:47:30;;;;;;;1.70;0.40;;;;;;;;;;5096212;28;20028;-75
2022/04/25 01:49:57;;;;;;;1.38;0.40;;;;;;;;;;5095131;28;20125;-74
2022/04/25 01:52:29;;;;;;;1.98;0.30;;;;;;;;;;5096116;28;20073;-74
2022/04/25 01:54:56;;;;;;;1.38;0.50;;;;;;;;;;5094835;28;20043;-74
2022/04/25 01:57:24;;;;;;;2.03;0.55;;;;;;;;;;5096130;28;20043;-74
2022/04/25 01:59:51;;;;;;;2.05;0.45;;;;;;;;;;5094908;28;20089;-74
2022/04/25 02:02:19;;;;;;;1.73;0.50;;;;;;;;;;5096099;28;20047;-74
2022/04/25 02:04:46;;;;;;;1.73;0.50;;;;;;;;;;5095999;28;20377;-74
2022/04/25 02:07:14;;;;;;;1.08;0.40;;;;;;;;;;5096138;28;20484;-74
2022/04/25 02:09:41;;;;;;;3.47;0.85;;;;;;;;;;5096022;28;20097;-74
2022/04/25 02:12:08;;;;;;;2.35;0.57;;;;;;;;;;5094515;28;20032;-73
2022/04/25 02:14:35;;;;;;;2.45;0.50;;;;;;;;;;5094491;28;20077;-72
2022/04/25 02:17:03;;;;;;;2.42;0.60;;;;;;;;;;5095940;28;20020;-71
2022/04/25 02:19:35;;;;;;;1.98;0.52;;;;;;;;;;5094336;28;20025;-73
2022/04/25 02:22:02;;;;;;;1.35;0.50;;;;;;;;;;5095891;28;20023;-73
2022/04/25 02:24:29;;;;;;;1.83;0.63;;;;;;;;;;5094258;28;20027;-72
2022/04/25 02:26:56;;;;;;;2.78;0.50;;;;;;;;;;5094381;28;20412;-72
2022/04/25 02:29:23;;;;;;;4.13;0.68;;;;;;;;;;5094327;28;20024;-72
2022/04/25 02:31:50;;;;;;;2.10;0.40;;;;;;;;;;5095707;28;20092;-73
2022/04/25 02:34:21;;;;;;;3.25;0.60;;;;;;;;;;5095306;28;20434;-74
2022/04/25 02:36:48;;;;;;;2.47;0.30;;;;;;;;;;5094471;28;20391;-72
2022/04/25 02:39:15;;;;;;;2.67;0.65;;;;;;;;;;5094376;28;20039;-73
2022/04/25 02:41:42;;;;;;;2.50;0.50;;;;;;;;;;5095546;28;20013;-71
2022/04/25 02:44:09;;;;;;;2.25;0.63;;;;;;;;;;5095381;28;20437;-71
2022/04/25 02:46:36;;;;;;;2.42;0.40;;;;;;;;;;5095406;28;20438;-71
2022/04/25 02:49:04;;;;;;;4.03;0.73;;;;;;;;;;5095303;28;20050;-72
2022/04/25 02:51:31;;;;;;;1.25;0.50;;;;;;;;;;5094164;28;20035;-72
2022/04/25 02:53:58;;;;;;;2.10;0.60;;;;;;;;;;5095289;28;20397;-72
2022/04/25 02:56:25;;;;;;;1.77;0.73;;;;;;;;;;5093804;28;20020;-72
2022/04/25 02:58:52;;;;;;;3.47;0.60;;;;;;;;;;5094052;28;20031;-72
2022/04/25 03:01:20;;;;;;;3.60;0.50;;;;;;;;;;5095339;28;20024;-72
2022/04/25 03:03:47;;;;;;;2.47;0.65;;;;;;;;;;5093952;28;20089;-72
2022/04/25 03:06:14;;;;;;;3.22;0.82;;;;;;;;;;5093875;28;20102;-71
2022/04/25 03:08:41;;;;;;;1.65;0.40;;;;;;;;;;5095176;28;20059;-73
2022/04/25 03:11:09;;;;;;;3.97;0.50;;;;;;;;;;5093740;28;20109;-71
2022/04/25 03:13:37;;;;;;;5.38;1.05;;;;;;;;;;5095040;28;20038;-72
2022/04/25 03:16:05;;;;;;;3.47;0.43;;;;;;;;;;5093625;28;20503;-70
2022/04/25 03:18:33;;;;;;;1.60;0.65;;;;;;;;;;5093605;28;20020;-72
2022/04/25 03:21:00;;;;;;;2.90;0.57;;;;;;;;;;5093545;28;20112;-70
2022/04/25 03:23:28;;;;;;;3.25;0.60;;;;;;;;;;5093318;28;20028;-71
2022/04/25 03:25:55;;;;;;;1.75;0.52;;;;;;;;;;5094717;28;20024;-72
2022/04/25 03:28:22;;;;;;;1.88;0.40;;;;;;;;;;5093410;28;20028;-72
2022/04/25 03:30:49;;;;;;;2.40;0.70;;;;;;;;;;5094535;28;20443;-71
2022/04/25 03:33:19;;;;;;;2.33;0.80;;;;;;;;;;5094614;28;20484;-71
2022/04/25 03:35:49;;;;;;;1.10;0.30;;;;;;;;;;5094574;28;20020;-71
2022/04/25 03:38:18;;;;;;;1.60;0.43;;;;;;;;;;5094579;28;20020;-72
2022/04/25 03:40:45;;;;;;;5.18;0.60;;;;;;;;;;5094401;28;20020;-71
2022/04/25 03:43:15;;;;;;;2.15;0.40;;;;;;;;;;5093173;28;20561;-72
2022/04/25 03:45:42;;;;;;;2.03;0.50;;;;;;;;;;5094397;28;20016;-71
2022/04/25 03:48:10;;;;;;;1.27;0.40;;;;;;;;;;5094165;28;20055;-71
2022/04/25 03:50:37;;;;;;;2.80;0.50;;;;;;;;;;5092974;28;20034;-71
2022/04/25 03:53:08;;;;;;;3.00;0.50;;;;;;;;;;5094233;28;20020;-71
2022/04/25 03:58:21;;;;;;;2.92;0.70;;;;;;;;;;5094465;28;20035;-73
2022/04/25 04:00:48;;;;;;;1.85;0.50;;;;;;;;;;5092731;28;20027;-72
2022/04/25 04:03:17;;;;;;;1.65;0.43;;;;;;;;;;5092718;28;20080;-74
2022/04/25 04:05:45;;;;;;;1.70;0.60;;;;;;;;;;5093664;28;20389;-71
2022/04/25 04:08:12;;;;;;;2.42;0.50;;;;;;;;;;5092191;28;20051;-73
2022/04/25 04:10:40;;;;;;;0.70;0.30;;;;;;;;;;5093864;28;20077;-71
2022/04/25 04:13:07;;;;;;;2.67;0.40;;;;;;;;;;5093772;28;20024;-72
2022/04/25 04:15:34;;;;;;;1.10;0.40;;;;;;;;;;5092537;28;20024;-72
2022/04/25 04:18:04;;;;;;;2.00;0.40;;;;;;;;;;5094021;28;20020;-72
2022/04/25 04:20:32;;;;;;;1.38;0.30;;;;;;;;;;5093740;28;20473;-72
2022/04/25 04:22:59;;;;;;;1.42;0.68;;;;;;;;;;5093642;28;20082;-73
2022/04/25 04:25:26;;;;;;;2.08;0.50;;;;;;;;;;5093741;28;20423;-72
2022/04/25 04:27:53;;;;;;;4.43;0.73;;;;;;;;;;5092129;28;20115;-71
2022/04/25 04:30:20;;;;;;;1.05;0.30;;;;;;;;;;5092161;28;20028;-72
2022/04/25 04:32:48;;;;;;;1.55;0.30;;;;;;;;;;5092151;28;20120;-73
2022/04/25 04:36:17;;;;;;;1.80;0.30;;;;;;;;;;5092167;28;20129;-73
2022/04/25 04:38:04;;;;;;;1.10;0.38;;;;;;;;;;5093210;28;20063;-71
2022/04/25 04:40:32;;;;;;;1.13;0.50;;;;;;;;;;5093393;28;20388;-72
2022/04/25 04:42:59;;;;;;;1.30;0.43;;;;;;;;;;5091917;28;20504;-72
2022/04/25 04:45:26;;;;;;;2.45;0.52;;;;;;;;;;5091873;28;20024;-71
2022/04/25 04:47:54;;;;;;;1.92;0.50;;;;;;;;;;5092928;28;20052;-71
2022/04/25 04:50:21;;;;;;;1.85;0.52;;;;;;;;;;5091773;28;20043;-74
2022/04/25 04:52:54;;;;;;;3.58;0.40;;;;;;;;;;5091635;28;20504;-72
2022/04/25 04:55:22;;;;;;;4.32;0.40;;;;;;;;;;5091662;28;20458;-73
2022/04/25 04:57:50;;;;;;;2.88;0.22;;;;;;;;;;5091637;28;20450;-72
2022/04/25 05:00:18;;;;;;;1.85;0.28;;;;;;;;;;5091677;28;20016;-72
2022/04/25 05:02:45;;;;;;;1.38;0.50;;;;;;;;;;5091493;28;20439;-73
2022/04/25 05:05:13;;;;;;;1.45;0.20;;;;;;;;;;5091401;28;20078;-72
2022/04/25 05:07:41;;;;;;;3.35;0.40;;;;;;;;;;5092669;28;20419;-70
2022/04/25 05:10:09;;;;;;;1.67;0.30;;;;;;;;;;5092721;28;20020;-72
2022/04/25 05:12:50;;;;;;;1.58;0.32;;;;;;;;;;5091132;28;20063;-73
2022/04/25 05:15:19;;;;;;;1.35;0.28;;;;;;;;;;5090998;28;20020;-71
2022/04/25 05:17:50;;;;;;;2.63;0.45;;;;;;;;;;5092365;28;20016;-71
2022/04/25 05:20:17;;;;;;;0.60;0.20;;;;;;;;;;5092479;28;20016;-72
2022/04/25 05:22:45;;;;;;;2.78;0.43;;;;;;;;;;5091066;28;20396;-72
2022/04/25 05:25:14;;;;;;;0.43;0.30;;;;;;;;;;5092302;28;20472;-72
2022/04/25 05:27:42;;;;;;;2.25;0.30;;;;;;;;;;5092279;28;20081;-73
2022/04/25 05:30:09;;;;;;;1.25;0.38;;;;;;;;;;5092324;28;20016;-72
2022/04/25 05:32:43;;;;;;;1.65;0.20;;;;;;;;;;5092196;28;20048;-73
2022/04/25 05:35:11;;;;;;;1.38;0.30;;;;;;;;;;5092547;28;20533;-74
2022/04/25 05:37:38;;;;;;;2.33;0.22;;;;;;;;;;5090917;28;20028;-73
2022/04/25 05:40:06;;;;;;;0.75;0.20;;;;;;;;;;5090812;28;20492;-74
2022/04/25 05:42:34;;;;;;;1.02;0.20;;;;;;;;;;5090779;28;20401;-73
2022/04/25 05:45:02;;;;;;;1.08;0.35;;;;;;;;;;5092072;28;20099;-74
2022/04/25 05:47:30;;;;;;;1.02;0.30;;;;;;;;;;5091677;28;20028;-73
2022/04/25 05:52:42;;;;;;;1.60;0.38;;;;;;;;;;5092365;28;20481;-75
2022/04/25 05:55:10;;;;;;;1.45;0.30;;;;;;;;;;5091863;28;20353;-75
2022/04/25 05:57:37;;;;;;;1.75;0.22;;;;;;;;;;5090765;28;20488;-74
2022/04/25 06:00:07;;;;;;;0.95;0.20;;;;;;;;;;5092055;28;20027;-73
2022/04/25 06:02:38;;;;;;;0.98;0.40;;;;;;;;;;5090664;28;20024;-73
2022/04/25 06:05:05;;;;;;;2.30;0.40;;;;;;;;;;5091797;28;20027;-73
2022/04/25 06:07:33;;;;;;;3.70;0.47;;;;;;;;;;5092010;28;20032;-73
2022/04/25 06:10:01;;;;;;;1.27;0.32;;;;;;;;;;5091880;28;20024;-72
2022/04/25 06:12:31;;;;;;;1.80;0.30;;;;;;;;;;5091735;28;20397;-74
2022/04/25 06:15:02;;;;;;;0.77;0.45;;;;;;;;;;5090539;28;20027;-73
2022/04/25 06:17:29;;;;;;;3.45;0.40;;;;;;;;;;5090595;28;20404;-73
2022/04/25 06:19:56;;;;;;;2.53;0.60;;;;;;;;;;5091853;28;20051;-73
2022/04/25 06:22:23;;;;;;;1.83;0.50;;;;;;;;;;5090844;28;20029;-73
2022/04/25 06:24:51;;;;;;;2.92;0.50;;;;;;;;;;5090275;28;20040;-73
2022/04/25 06:27:18;;;;;;;1.17;0.30;;;;;;;;;;5090510;28;20032;-73
2022/04/25 06:29:46;;;;;;;0.95;0.30;;;;;;;;;;5092640;28;20042;-71
2022/04/25 06:32:14;;;;;;;1.80;0.50;;;;;;;;;;5095482;28;20027;-75
2022/04/25 06:34:42;;;;;;;2.40;0.57;;;;;;;;;;5094249;28;20507;-73
2022/04/25 06:37:09;;;;;;;0.85;0.40;;;;;;;;;;5095630;28;20411;-73
2022/04/25 06:39:36;;;;;;;2.80;0.68;;;;;;;;;;5095670;28;20120;-74
2022/04/25 06:42:05;;;;;;;2.03;0.70;;;;;;;;;;5095442;28;20020;-73
2022/04/25 06:44:32;;;;;;;3.20;0.40;;;;;;;;;;5095468;28;20029;-74
2022/04/25 06:46:59;;;;;;;1.58;0.32;;;;;;;;;;5094000;28;20020;-72
2022/04/25 06:49:27;;;;;;;0.85;0.40;;;;;;;;;;5095143;28;20052;-73
2022/04/25 06:51:59;;;;;;;1.30;0.45;;;;;;;;;;5095192;28;20022;-75
2022/04/25 06:54:27;;;;;;;1.27;0.32;;;;;;;;;;5095335;28;20016;-74
2022/04/25 06:56:55;;;;;;;1.27;0.68;;;;;;;;;;5095117;28;20066;-74
2022/04/25 06:59:22;;;;;;;3.00;0.50;;;;;;;;;;5093841;28;20107;-72
2022/04/25 07:01:50;;;;;;;1.85;0.40;;;;;;;;;;5095106;28;20031;-73
2022/04/25 07:04:18;;;;;;;4.30;0.57;;;;;;;;;;5095095;28;20032;-74
2022/04/25 07:06:45;;;;;;;2.03;0.70;;;;;;;;;;5093616;28;20488;-74
2022/04/25 07:09:13;;;;;;;2.47;0.70;;;;;;;;;;5095041;28;20031;-74
2022/04/25 07:11:43;;;;;;;3.13;0.77;;;;;;;;;;5094984;28;20028;-74
2022/04/25 07:14:10;;;;;;;;;;;;;;;;;;5095287;28;20507;-74
2022/04/25 07:16:37;;;;;;;5.43;0.90;;;;;;;;;;5094823;28;19950;-73
2022/04/25 07:19:04;;;;;;;2.67;1.15;;;;;;;;;;5094849;28;20077;-75
2022/04/25 07:29:48;;;;;;;2.33;1.27;;;;;;;;;;5094667;28;20515;-74
2022/04/25 07:32:18;;;;;;;3.50;1.20;;;;;;;;;;5093443;28;20073;-75
2022/04/25 07:34:47;;;;;;;3.25;1.30;;;;;;;;;;5093335;28;20134;-75
2022/04/25 07:37:15;;;;;;;4.80;1.33;;;;;;;;;;5094457;28;20012;-74
2022/04/25 07:39:43;;;;;;;2.20;1.38;;;;;;;;;;5094493;28;20012;-74
2022/04/25 07:42:11;;;;;;;2.42;1.30;;;;;;;;;;5093108;28;20035;-73
2022/04/25 07:44:38;;;;;;;2.88;1.20;;;;;;;;;;5093063;28;20523;-74
2022/04/25 07:47:05;;;;;;;4.63;1.75;;;;;;;;;;5092973;28;20020;-73
2022/04/25 07:49:35;;;;;;;3.83;1.00;;;;;;;;;;5094212;28;20454;-75
2022/04/25 07:52:02;;;;;;;3.03;1.13;;;;;;;;;;5094290;28;20058;-73
2022/04/25 07:54:30;;;;;;;2.63;0.98;;;;;;;;;;5094220;28;20090;-74
2022/04/25 07:56:57;;;;;;;4.53;1.85;;;;;;;;;;5092857;28;20020;-73
2022/04/25 07:59:24;;;;;;;3.45;1.70;;;;;;;;;;5094189;28;20023;-73
2022/04/25 08:01:51;;;;;;;4.40;1.98;;;;;;;;;;5094085;28;20024;-73
2022/04/25 08:04:18;;;;;;;3.92;1.92;;;;;;;;;;5092558;28;20035;-75
2022/04/25 08:06:45;;;;;;;7.00;2.15;;;;;;;;;;5093848;28;20062;-74
2022/04/25 08:09:15;;;;;;;6.55;2.92;;;;;;;;;;5092402;28;20491;-74
2022/04/25 08:11:42;;;;;;;5.30;1.92;;;;;;;;;;5093730;28;20048;-75
2022/04/25 08:19:40;;;;;;;9.60;4.63;;;;;;;;;;5093535;28;20027;-75
2022/04/25 08:22:09;;;;;;;22.38;15.68;;;;;;;;;;5092234;28;20027;-75
2022/04/25 08:24:36;;;;;;;19.52;12.13;;;;;;;;;;5092256;28;20027;-74
2022/04/25 08:27:05;;;;;;;19.13;12.75;;;;;;;;;;5093427;28;20042;-75
2022/04/25 08:29:33;;;;;;;22.42;14.30;;;;;;;;;;5093423;28;20465;-75
2022/04/25 08:32:01;;;;;;;15.27;10.05;;;;;;;;;;5093429;28;20054;-74
2022/04/25 08:34:28;;;;;;;10.05;5.68;;;;;;;;;;5092118;28;20056;-74
2022/04/25 08:36:55;;;;;;;7.95;3.97;;;;;;;;;;5093378;28;20020;-74
2022/04/25 08:39:22;;;;;;;6.40;2.33;;;;;;;;;;5093317;28;20021;-74
2022/04/25 08:41:51;;;;;;;4.00;2.08;;;;;;;;;;5091962;28;20020;-75
2022/04/25 08:44:19;;;;;;;5.40;3.90;;;;;;;;;;5093295;28;20036;-74
2022/04/25 08:46:50;;;;;;;6.43;3.08;;;;;;;;;;5093210;28;20104;-75
2022/04/25 08:49:19;;;;;;;3.47;2.85;;;;;;;;;;5091825;28;20047;-75
2022/04/25 08:51:47;;;;;;;7.60;3.35;;;;;;;;;;5091857;28;20032;-75
2022/04/25 08:54:14;;;;;;;4.60;2.22;;;;;;;;;;5092641;28;20020;-75
2022/04/25 08:56:42;;;;;;;5.75;3.53;;;;;;;;;;5093049;28;20024;-74
2022/04/25 08:59:11;;;;;;;4.80;2.20;;;;;;;;;;5091727;28;20016;-73
2022/04/25 09:01:40;;;;;;;4.80;1.63;;;;;;;;;;5093088;28;20048;-73
2022/04/25 09:04:07;;;;;;;9.38;6.95;;;;;;;;;;5092750;28;20523;-73
2022/04/25 09:06:34;;;;;;;7.68;5.30;;;;;;;;;;5091540;28;20028;-73
2022/04/25 09:09:02;;;;;;;3.55;2.53;;;;;;;;;;5092824;28;20397;-74
2022/04/25 09:14:15;;;;;;;3.25;1.80;;;;;;;;;;5092721;28;20059;-74
2022/04/25 09:16:42;;;;;;;3.25;1.85;;;;;;;;;;5092779;28;20058;-73
2022/04/25 09:19:09;;;;;;;5.07;1.77;;;;;;;;;;5092759;28;20031;-74
2022/04/25 09:21:43;;;;;;;4.45;1.52;;;;;;;;;;5092716;28;20091;-74
2022/04/25 09:24:27;;;;;;;3.63;1.63;;;;;;;;;;5091277;28;20046;-73
2022/04/25 09:27:14;;;;;;;3.30;1.92;;;;;;;;;;5091193;28;20035;-75
2022/04/25 09:29:42;;;;;;;6.13;1.88;;;;;;;;;;5092464;28;20032;-75
2022/04/25 09:32:09;;;;;;;4.22;1.40;;;;;;;;;;5091288;28;20028;-74
2022/04/25 09:37:40;;;;;;;4.35;1.30;;;;;;;;;;5092529;28;20077;-75
2022/04/25 09:40:07;;;;;;;8.77;2.30;;;;;;;;;;5092487;28;20051;-76
2022/04/25 09:42:36;;;;;;;3.80;1.38;;;;;;;;;;5091070;28;20116;-77
2022/04/25 09:45:04;;;;;;;3.88;1.83;;;;;;;;;;5091002;28;20024;-77
2022/04/25 09:47:32;;;;;;;3.80;1.92;;;;;;;;;;5092156;28;20020;-76
2022/04/25 09:50:00;;;;;;;5.55;1.60;;;;;;;;;;5091020;28;20035;-75
2022/04/25 09:52:27;;;;;;;5.57;1.95;;;;;;;;;;5092211;28;20032;-76
2022/04/25 09:54:56;;;;;;;3.88;1.83;;;;;;;;;;5092350;28;20048;-73
2022/04/25 09:57:32;;;;;;;5.28;1.58;;;;;;;;;;5092271;28;20020;-73
2022/04/25 09:59:59;;;;;;;3.78;1.50;;;;;;;;;;5090987;28;20024;-74
2022/04/25 10:02:30;;;;;;;4.75;1.30;;;;;;;;;;5092219;28;20028;-73
2022/04/25 10:04:56;;;;;;;;;;;;;;;;;;5092496;28;20035;-74
2022/04/25 10:07:25;;;;;;;3.33;1.30;;;;;;;;;;5094860;28;19927;-73
2022/04/25 10:09:52;;;;;;;2.75;1.48;;;;;;;;;;5094807;28;20078;-74
2022/04/25 10:12:20;;;;;;;4.30;1.52;;;;;;;;;;5094726;28;20031;-73
2022/04/25 10:14:48;;;;;;;3.65;1.27;;;;;;;;;;5096151;28;20047;-73
2022/04/25 10:17:16;;;;;;;2.03;0.98;;;;;;;;;;5096068;28;20080;-75
2022/04/25 10:19:43;;;;;;;2.63;1.08;;;;;;;;;;5095995;28;20448;-75
2022/04/25 10:22:11;;;;;;;3.75;1.38;;;;;;;;;;5095983;28;20031;-75
2022/04/25 10:24:40;;;;;;;2.22;1.23;;;;;;;;;;5096000;28;20047;-75
2022/04/25 10:27:12;;;;;;;3.50;1.30;;;;;;;;;;5095871;28;20047;-74
2022/04/25 10:29:43;;;;;;;4.35;1.25;;;;;;;;;;5094595;28;20024;-74
2022/04/25 10:32:12;;;;;;;3.47;1.20;;;;;;;;;;5095733;28;20073;-75
2022/04/25 10:34:56;;;;;;;2.67;1.00;;;;;;;;;;5094400;28;20020;-74
2022/04/25 10:37:35;;;;;;;2.72;1.20;;;;;;;;;;5095857;28;20018;-75
2022/04/25 10:40:05;;;;;;;4.18;1.30;;;;;;;;;;5094348;28;20070;-76
2022/04/25 10:45:18;;;;;;;1.27;0.75;;;;;;;;;;5095893;28;20119;-75
2022/04/25 10:48:08;;;;;;;3.15;1.00;;;;;;;;;;5095332;28;20048;-75
2022/04/25 10:50:55;;;;;;;2.40;0.77;;;;;;;;;;5095580;28;20040;-75
2022/04/25 10:53:42;;;;;;;2.13;0.77;;;;;;;;;;5093901;28;20748;-75
2022/04/25 10:56:09;;;;;;;2.53;0.90;;;;;;;;;;5095388;28;20071;-75
2022/04/25 10:58:36;;;;;;;2.22;0.80;;;;;;;;;;5094035;28;20024;-75
2022/04/25 11:01:04;;;;;;;2.25;0.75;;;;;;;;;;5093972;28;20020;-74
2022/04/25 11:03:31;;;;;;;1.90;0.70;;;;;;;;;;5095148;28;20024;-72
2022/04/25 11:06:02;;;;;;;2.05;0.65;;;;;;;;;;5093846;28;20053;-72
2022/04/25 11:08:33;;;;;;;4.07;0.88;;;;;;;;;;5095202;28;20024;-74
2022/04/25 11:11:03;;;;;;;3.38;0.85;;;;;;;;;;5095128;28;20031;-74
2022/04/25 11:13:31;;;;;;;2.65;0.77;;;;;;;;;;5093613;28;20078;-74
2022/04/25 11:16:01;;;;;;;3.63;1.05;;;;;;;;;;5093407;28;20020;-74
2022/04/25 11:18:53;;;;;;;3.22;0.90;;;;;;;;;;5095225;28;20080;-74
2022/04/25 11:21:30;;;;;;;2.75;0.70;;;;;;;;;;5092733;28;20516;-72
2022/04/25 11:23:59;;;;;;;2.05;0.80;;;;;;;;;;5094867;28;20024;-74
2022/04/25 11:26:26;;;;;;;3.03;0.90;;;;;;;;;;5094760;28;20024;-73
2022/04/25 11:29:01;;;;;;;3.42;0.88;;;;;;;;;;5094749;28;20728;-73
2022/04/25 11:31:28;;;;;;;2.63;0.80;;;;;;;;;;5094731;28;20073;-73
2022/04/25 11:34:02;;;;;;;3.45;0.80;;;;;;;;;;5093316;28;20032;-73
2022/04/25 11:36:30;;;;;;;0.75;0.70;;;;;;;;;;5094622;28;20027;-73
2022/04/25 11:41:47;;;;;;;2.05;0.82;;;;;;;;;;5094790;28;20051;-73
2022/04/25 11:44:14;;;;;;;2.13;1.08;;;;;;;;;;5093199;28;20020;-72
2022/04/25 11:46:42;;;;;;;1.88;0.90;;;;;;;;;;5093104;28;20389;-74
2022/04/25 11:49:09;;;;;;;2.88;1.00;;;;;;;;;;5092832;28;20051;-74
2022/04/25 11:51:41;;;;;;;3.58;1.08;;;;;;;;;;5094329;28;20099;-73
2022/04/25 11:54:10;;;;;;;1.95;1.13;;;;;;;;;;5094238;28;20441;-73
2022/04/25 11:56:41;;;;;;;3.70;1.42;;;;;;;;;;5094291;28;20024;-73
2022/04/25 11:59:19;;;;;;;4.30;1.20;;;;;;;;;;5092809;28;20381;-74
2022/04/25 12:01:47;;;;;;;4.72;1.15;;;;;;;;;;5094238;28;20016;-73
2022/04/25 12:04:19;;;;;;;3.58;1.15;;;;;;;;;;5094059;28;20412;-73
2022/04/25 12:07:06;;;;;;;3.70;1.33;;;;;;;;;;5093920;28;20017;-74
2022/04/25 12:15:42;;;;;;;2.03;1.00;;;;;;;;;;5093898;28;20031;-74
2022/04/25 12:18:17;;;;;;;3.50;1.10;;;;;;;;;;5093766;28;20023;-75
2022/04/25 12:21:13;;;;;;;1.80;0.88;;;;;;;;;;5092779;28;20099;-74
2022/04/25 12:23:43;;;;;;;1.73;0.88;;;;;;;;;;5071808;28;20040;-75
2022/04/25 12:26:21;;;;;;;2.72;0.90;;;;;;;;;;5092269;28;20084;-74
2022/04/25 12:28:51;;;;;;;1.70;1.20;;;;;;;;;;5092859;28;20031;-73
2022/04/25 12:31:19;;;;;;;3.25;1.17;;;;;;;;;;5092295;28;20020;-74
2022/04/25 12:33:47;;;;;;;3.08;1.30;;;;;;;;;;5092016;28;20032;-74
2022/04/25 12:36:18;;;;;;;2.05;0.98;;;;;;;;;;5093422;28;20565;-74
2022/04/25 12:38:55;;;;;;;2.85;1.23;;;;;;;;;;5093364;28;20028;-74
2022/04/25 12:41:32;;;;;;;3.38;1.13;;;;;;;;;;5093296;28;20019;-73
2022/04/25 12:44:01;;;;;;;1.83;0.90;;;;;;;;;;5092017;28;20392;-74
2022/04/25 12:46:35;;;;;;;1.55;0.73;;;;;;;;;;5091956;28;20032;-74
2022/04/25 12:49:04;;;;;;;3.08;0.90;;;;;;;;;;5091707;28;20048;-75
2022/04/25 12:51:33;;;;;;;2.00;1.20;;;;;;;;;;5093296;28;20167;-75
2022/04/25 12:54:00;;;;;;;2.42;1.00;;;;;;;;;;5093150;28;20503;-75
2022/04/25 12:56:29;;;;;;;2.08;0.88;;;;;;;;;;5093703;28;20062;-74
2022/04/25 12:58:56;;;;;;;2.90;1.10;;;;;;;;;;5091939;28;20106;-74
2022/04/25 13:01:31;;;;;;;2.78;1.00;;;;;;;;;;5091860;28;20060;-75
2022/04/25 13:04:19;;;;;;;3.33;1.20;;;;;;;;;;5093260;28;20070;-75
2022/04/25 13:06:46;;;;;;;2.72;0.77;;;;;;;;;;5093111;28;20024;-75
2022/04/25 13:09:14;;;;;;;2.53;1.17;;;;;;;;;;5093062;28;20094;-75
2022/04/25 13:11:42;;;;;;;1.77;0.80;;;;;;;;;;5092867;28;20031;-75
2022/04/25 13:14:09;;;;;;;3.03;1.20;;;;;;;;;;5093020;28;20024;-75
2022/04/25 13:16:37;;;;;;;2.58;1.02;;;;;;;;;;5091562;28;20024;-76
2022/04/25 13:19:04;;;;;;;1.85;1.08;;;;;;;;;;5092960;28;20020;-75
2022/04/25 13:21:34;;;;;;;2.05;1.05;;;;;;;;;;5092887;28;20028;-74
2022/04/25 13:24:02;;;;;;;4.10;1.35;;;;;;;;;;5091502;28;20056;-75
2022/04/25 13:26:29;;;;;;;4.57;1.40;;;;;;;;;;5091385;28;20067;-75
2022/04/25 13:28:56;;;;;;;1.83;0.95;;;;;;;;;;5091401;28;20086;-75
2022/04/25 13:31:23;;;;;;;3.40;1.17;;;;;;;;;;5092792;28;20027;-75
2022/04/25 13:33:51;;;;;;;5.18;1.50;;;;;;;;;;5093089;28;20020;-75
2022/04/25 13:36:18;;;;;;;2.13;0.80;;;;;;;;;;5091420;28;20030;-75
2022/04/25 13:38:45;;;;;;;2.15;0.65;;;;;;;;;;5092563;28;20023;-75
2022/04/25 13:41:12;;;;;;;2.38;0.80;;;;;;;;;;5092547;28;20047;-75
2022/04/25 13:43:39;;;;;;;4.20;0.80;;;;;;;;;;5092952;28;20077;-75
2022/04/25 13:46:06;;;;;;;3.92;1.00;;;;;;;;;;5092723;28;20028;-76
2022/04/25 13:48:34;;;;;;;2.38;0.80;;;;;;;;;;5092323;28;20519;-74
2022/04/25 13:51:01;;;;;;;3.65;0.80;;;;;;;;;;5091103;28;20039;-76
2022/04/25 13:53:28;;;;;;;2.10;0.95;;;;;;;;;;5092529;28;20027;-76
2022/04/25 13:55:55;;;;;;;5.15;1.05;;;;;;;;;;5091225;28;20085;-77
2022/04/25 13:58:24;;;;;;;2.72;1.00;;;;;;;;;;5092286;28;20560;-75
2022/04/25 14:00:51;;;;;;;6.85;1.13;;;;;;;;;;5090829;28;20105;-75
2022/04/25 14:03:19;;;;;;;1.58;0.70;;;;;;;;;;5092223;28;20076;-75
2022/04/25 14:05:48;;;;;;;1.80;1.23;;;;;;;;;;5092241;28;20024;-72
2022/04/25 14:08:15;;;;;;;2.38;0.85;;;;;;;;;;5090906;28;20024;-74
2022/04/25 14:10:45;;;;;;;2.45;0.70;;;;;;;;;;5090827;28;20103;-72
2022/04/25 14:13:12;;;;;;;2.33;0.85;;;;;;;;;;5092092;28;20028;-73
2022/04/25 14:15:41;;;;;;;5.45;1.02;;;;;;;;;;5090800;28;20017;-72
2022/04/25 14:18:08;;;;;;;2.15;0.85;;;;;;;;;;5092141;28;20073;-72
2022/04/25 14:20:36;;;;;;;3.30;0.82;;;;;;;;;;5090714;28;20480;-72
2022/04/25 14:23:04;;;;;;;2.22;0.88;;;;;;;;;;5090768;28;20396;-73
2022/04/25 14:25:32;;;;;;;2.67;0.85;;;;;;;;;;5090736;28;20020;-75
2022/04/25 14:27:59;;;;;;;3.25;1.23;;;;;;;;;;5092082;28;20366;-74
2022/04/25 14:30:27;;;;;;;7.03;1.60;;;;;;;;;;5090643;28;20073;-74
2022/04/25 14:32:58;;;;;;;3.30;1.10;;;;;;;;;;5091973;28;20054;-74
2022/04/25 14:35:25;;;;;;;2.97;1.00;;;;;;;;;;5090656;28;20073;-74
2022/04/25 14:37:52;;;;;;;3.38;1.10;;;;;;;;;;5091879;28;20021;-75
2022/04/25 14:40:20;;;;;;;2.22;1.05;;;;;;;;;;5091935;28;20089;-74
2022/04/25 14:42:47;;;;;;;3.35;0.98;;;;;;;;;;5091992;28;20027;-74
2022/04/25 14:45:15;;;;;;;3.40;0.93;;;;;;;;;;5090590;28;20025;-75
2022/04/25 14:47:46;;;;;;;5.30;1.58;;;;;;;;;;5091629;28;20040;-75
2022/04/25 14:55:44;;;;;;;1.70;1.05;;;;;;;;;;5095737;28;20510;-74
2022/04/25 14:58:13;;;;;;;2.63;0.93;;;;;;;;;;5094079;28;20028;-74
2022/04/25 15:00:41;;;;;;;3.03;0.80;;;;;;;;;;5095358;28;20483;-75
2022/04/25 15:03:09;;;;;;;1.27;0.55;;;;;;;;;;5095371;28;20024;-74
2022/04/25 15:05:40;;;;;;;3.50;0.88;;;;;;;;;;5093864;28;20101;-75
2022/04/25 15:08:09;;;;;;;1.27;0.75;;;;;;;;;;5093827;28;20031;-75
2022/04/25 15:10:39;;;;;;;3.08;0.88;;;;;;;;;;5093796;28;20024;-74
2022/04/25 15:13:06;;;;;;;;;;;;;;;;;;5094116;28;20081;-75
2022/04/25 15:15:34;;;;;;;2.17;0.70;;;;;;;;;;5093677;28;20372;-74
2022/04/25 15:18:01;;;;;;;1.67;0.80;;;;;;;;;;5093665;28;20121;-75
2022/04/25 15:20:28;;;;;;;2.72;0.90;;;;;;;;;;5094905;28;20016;-75
2022/04/25 15:22:56;;;;;;;2.15;1.00;;;;;;;;;;5093531;28;20036;-75
2022/04/25 15:25:23;;;;;;;2.45;0.80;;;;;;;;;;5094899;28;20031;-74
2022/04/25 15:27:50;;;;;;;2.70;0.60;;;;;;;;;;5093496;28;20115;-74
2022/04/25 15:30:18;;;;;;;1.92;0.60;;;;;;;;;;5093486;28;20435;-73
2022/04/25 15:32:45;;;;;;;2.75;0.60;;;;;;;;;;5094732;28;20502;-73
2022/04/25 15:35:12;;;;;;;1.88;0.50;;;;;;;;;;5094669;28;20024;-74
2022/04/25 15:37:39;;;;;;;2.33;0.55;;;;;;;;;;5093294;28;20058;-74